sensor_id;sensor_type;location;lat;lon;timestamp;P1;durP1;ratioP1;P2;durP2;ratioP2
51374;SDS011;37465;52.738;4.752;2023-03-01T00:01:15;7.82;;;4.13;;
51374;SDS011;37465;52.738;4.752;2023-03-01T00:03:44;7.00;;;4.43;;
51374;SDS011;37465;52.738;4.752;2023-03-01T00:06:12;7.50;;;4.22;;
51374;SDS011;37465;52.738;4.752;2023-03-01T00:08:40;7.35;;;4.40;;
51374;SDS011;37465;52.738;4.752;2023-03-01T00:11:10;7.90;;;4.45;;
51374;SDS011;37465;52.738;4.752;2023-03-01T00:13:45;8.88;;;4.57;;
51374;SDS011;37465;52.738;4.752;2023-03-01T00:16:16;7.60;;;4.53;;
51374;SDS011;37465;52.738;4.752;2023-03-01T00:18:45;7.93;;;4.55;;
51374;SDS011;37465;52.738;4.752;2023-03-01T00:21:13;6.82;;;4.70;;
51374;SDS011;37465;52.738;4.752;2023-03-01T00:23:41;7.55;;;4.43;;
51374;SDS011;37465;52.738;4.752;2023-03-01T00:26:09;6.25;;;3.92;;
51374;SDS011;37465;52.738;4.752;2023-03-01T00:28:38;8.30;;;4.60;;
51374;SDS011;37465;52.738;4.752;2023-03-01T00:31:06;7.85;;;4.90;;
51374;SDS011;37465;52.738;4.752;2023-03-01T00:33:36;7.00;;;4.50;;
51374;SDS011;37465;52.738;4.752;2023-03-01T00:36:04;5.85;;;4.10;;
51374;SDS011;37465;52.738;4.752;2023-03-01T00:38:34;7.55;;;4.47;;
51374;SDS011;37465;52.738;4.752;2023-03-01T00:41:02;8.52;;;4.68;;
51374;SDS011;37465;52.738;4.752;2023-03-01T00:43:31;7.80;;;4.50;;
51374;SDS011;37465;52.738;4.752;2023-03-01T00:46:03;7.63;;;4.40;;
51374;SDS011;37465;52.738;4.752;2023-03-01T00:48:31;7.70;;;4.30;;
51374;SDS011;37465;52.738;4.752;2023-03-01T00:51:04;9.45;;;4.85;;
51374;SDS011;37465;52.738;4.752;2023-03-01T00:53:33;6.57;;;3.92;;
51374;SDS011;37465;52.738;4.752;2023-03-01T00:56:00;7.63;;;4.57;;
51374;SDS011;37465;52.738;4.752;2023-03-01T00:58:29;7.40;;;4.05;;
51374;SDS011;37465;52.738;4.752;2023-03-01T01:00:57;7.20;;;4.35;;
51374;SDS011;37465;52.738;4.752;2023-03-01T01:03:25;6.53;;;3.92;;
51374;SDS011;37465;52.738;4.752;2023-03-01T01:05:53;7.30;;;4.13;;
51374;SDS011;37465;52.738;4.752;2023-03-01T01:08:22;7.13;;;4.47;;
51374;SDS011;37465;52.738;4.752;2023-03-01T01:10:50;7.95;;;4.63;;
51374;SDS011;37465;52.738;4.752;2023-03-01T01:13:17;6.07;;;4.03;;
51374;SDS011;37465;52.738;4.752;2023-03-01T01:15:46;7.38;;;4.20;;
51374;SDS011;37465;52.738;4.752;2023-03-01T01:18:13;6.78;;;3.75;;
51374;SDS011;37465;52.738;4.752;2023-03-01T01:20:41;7.88;;;4.63;;
51374;SDS011;37465;52.738;4.752;2023-03-01T01:23:09;6.72;;;3.67;;
51374;SDS011;37465;52.738;4.752;2023-03-01T01:25:37;8.20;;;4.97;;
51374;SDS011;37465;52.738;4.752;2023-03-01T01:28:05;8.40;;;4.47;;
51374;SDS011;37465;52.738;4.752;2023-03-01T01:30:33;8.98;;;4.88;;
51374;SDS011;37465;52.738;4.752;2023-03-01T01:33:00;9.15;;;5.00;;
51374;SDS011;37465;52.738;4.752;2023-03-01T01:35:28;6.88;;;4.40;;
51374;SDS011;37465;52.738;4.752;2023-03-01T01:37:56;8.23;;;4.93;;
51374;SDS011;37465;52.738;4.752;2023-03-01T01:40:23;7.53;;;4.43;;
51374;SDS011;37465;52.738;4.752;2023-03-01T01:42:52;8.52;;;4.35;;
51374;SDS011;37465;52.738;4.752;2023-03-01T01:45:28;7.57;;;4.47;;
51374;SDS011;37465;52.738;4.752;2023-03-01T01:47:59;10.30;;;4.90;;
51374;SDS011;37465;52.738;4.752;2023-03-01T01:50:29;8.20;;;4.68;;
51374;SDS011;37465;52.738;4.752;2023-03-01T01:53:05;8.40;;;3.92;;
51374;SDS011;37465;52.738;4.752;2023-03-01T01:55:34;8.90;;;4.30;;
51374;SDS011;37465;52.738;4.752;2023-03-01T01:58:05;9.13;;;4.53;;
51374;SDS011;37465;52.738;4.752;2023-03-01T02:00:34;9.30;;;4.93;;
51374;SDS011;37465;52.738;4.752;2023-03-01T02:03:03;11.00;;;5.35;;
51374;SDS011;37465;52.738;4.752;2023-03-01T02:05:36;9.35;;;5.03;;
51374;SDS011;37465;52.738;4.752;2023-03-01T02:08:06;10.90;;;5.35;;
51374;SDS011;37465;52.738;4.752;2023-03-01T02:10:35;11.20;;;5.03;;
51374;SDS011;37465;52.738;4.752;2023-03-01T02:13:04;13.70;;;4.88;;
51374;SDS011;37465;52.738;4.752;2023-03-01T02:15:32;9.15;;;4.70;;
51374;SDS011;37465;52.738;4.752;2023-03-01T02:18:01;9.50;;;5.03;;
51374;SDS011;37465;52.738;4.752;2023-03-01T02:20:31;8.85;;;5.00;;
51374;SDS011;37465;52.738;4.752;2023-03-01T02:23:00;8.88;;;4.00;;
51374;SDS011;37465;52.738;4.752;2023-03-01T02:25:35;8.38;;;4.38;;
51374;SDS011;37465;52.738;4.752;2023-03-01T02:28:05;10.27;;;4.60;;
51374;SDS011;37465;52.738;4.752;2023-03-01T02:30:39;8.32;;;4.38;;
51374;SDS011;37465;52.738;4.752;2023-03-01T02:35:54;6.88;;;3.72;;
51374;SDS011;37465;52.738;4.752;2023-03-01T02:38:22;9.15;;;3.70;;
51374;SDS011;37465;52.738;4.752;2023-03-01T02:40:50;7.95;;;3.92;;
51374;SDS011;37465;52.738;4.752;2023-03-01T02:43:18;8.02;;;4.40;;
51374;SDS011;37465;52.738;4.752;2023-03-01T02:45:50;9.10;;;4.53;;
51374;SDS011;37465;52.738;4.752;2023-03-01T02:48:19;7.60;;;4.45;;
51374;SDS011;37465;52.738;4.752;2023-03-01T02:50:52;9.45;;;4.85;;
51374;SDS011;37465;52.738;4.752;2023-03-01T02:53:32;8.40;;;4.53;;
51374;SDS011;37465;52.738;4.752;2023-03-01T02:56:03;7.28;;;4.32;;
51374;SDS011;37465;52.738;4.752;2023-03-01T02:58:31;8.50;;;4.38;;
51374;SDS011;37465;52.738;4.752;2023-03-01T03:01:08;10.25;;;4.40;;
51374;SDS011;37465;52.738;4.752;2023-03-01T03:03:36;9.25;;;4.53;;
51374;SDS011;37465;52.738;4.752;2023-03-01T03:06:03;7.65;;;4.45;;
51374;SDS011;37465;52.738;4.752;2023-03-01T03:08:31;8.10;;;4.75;;
51374;SDS011;37465;52.738;4.752;2023-03-01T03:10:59;10.00;;;4.80;;
51374;SDS011;37465;52.738;4.752;2023-03-01T03:13:26;7.00;;;4.32;;
51374;SDS011;37465;52.738;4.752;2023-03-01T03:15:54;9.32;;;5.07;;
51374;SDS011;37465;52.738;4.752;2023-03-01T03:18:24;10.50;;;5.20;;
51374;SDS011;37465;52.738;4.752;2023-03-01T03:23:20;9.07;;;4.25;;
51374;SDS011;37465;52.738;4.752;2023-03-01T03:25:48;10.73;;;5.10;;
51374;SDS011;37465;52.738;4.752;2023-03-01T03:28:17;10.43;;;4.80;;
51374;SDS011;37465;52.738;4.752;2023-03-01T03:30:45;10.77;;;4.95;;
51374;SDS011;37465;52.738;4.752;2023-03-01T03:33:13;8.95;;;5.00;;
51374;SDS011;37465;52.738;4.752;2023-03-01T03:35:43;11.27;;;5.38;;
51374;SDS011;37465;52.738;4.752;2023-03-01T03:38:12;12.00;;;5.38;;
51374;SDS011;37465;52.738;4.752;2023-03-01T03:40:43;12.25;;;5.38;;
51374;SDS011;37465;52.738;4.752;2023-03-01T03:43:12;10.55;;;5.32;;
51374;SDS011;37465;52.738;4.752;2023-03-01T03:45:41;11.35;;;5.32;;
51374;SDS011;37465;52.738;4.752;2023-03-01T03:48:10;7.75;;;4.57;;
51374;SDS011;37465;52.738;4.752;2023-03-01T03:50:38;10.50;;;5.65;;
51374;SDS011;37465;52.738;4.752;2023-03-01T03:53:08;10.30;;;5.15;;
51374;SDS011;37465;52.738;4.752;2023-03-01T03:55:37;12.82;;;6.25;;
51374;SDS011;37465;52.738;4.752;2023-03-01T03:58:06;14.93;;;6.63;;
51374;SDS011;37465;52.738;4.752;2023-03-01T04:00:36;11.13;;;5.70;;
51374;SDS011;37465;52.738;4.752;2023-03-01T04:03:05;11.75;;;5.43;;
51374;SDS011;37465;52.738;4.752;2023-03-01T04:05:33;10.25;;;4.80;;
51374;SDS011;37465;52.738;4.752;2023-03-01T04:08:01;11.30;;;5.13;;
51374;SDS011;37465;52.738;4.752;2023-03-01T04:10:31;8.73;;;5.18;;
51374;SDS011;37465;52.738;4.752;2023-03-01T04:13:01;14.05;;;6.28;;
51374;SDS011;37465;52.738;4.752;2023-03-01T04:15:29;7.22;;;5.05;;
51374;SDS011;37465;52.738;4.752;2023-03-01T04:18:00;9.90;;;5.45;;
51374;SDS011;37465;52.738;4.752;2023-03-01T04:20:29;9.50;;;4.88;;
51374;SDS011;37465;52.738;4.752;2023-03-01T04:23:00;8.80;;;4.70;;
51374;SDS011;37465;52.738;4.752;2023-03-01T04:25:38;7.85;;;4.22;;
51374;SDS011;37465;52.738;4.752;2023-03-01T04:28:07;7.97;;;4.95;;
51374;SDS011;37465;52.738;4.752;2023-03-01T04:30:35;10.48;;;5.45;;
51374;SDS011;37465;52.738;4.752;2023-03-01T04:33:03;8.90;;;5.10;;
51374;SDS011;37465;52.738;4.752;2023-03-01T04:35:31;10.03;;;5.10;;
51374;SDS011;37465;52.738;4.752;2023-03-01T04:38:00;11.20;;;4.43;;
51374;SDS011;37465;52.738;4.752;2023-03-01T04:40:29;9.07;;;4.53;;
51374;SDS011;37465;52.738;4.752;2023-03-01T04:42:58;9.25;;;4.78;;
51374;SDS011;37465;52.738;4.752;2023-03-01T04:45:25;8.05;;;4.18;;
51374;SDS011;37465;52.738;4.752;2023-03-01T04:47:53;8.30;;;4.47;;
51374;SDS011;37465;52.738;4.752;2023-03-01T04:50:24;9.07;;;4.97;;
51374;SDS011;37465;52.738;4.752;2023-03-01T04:52:52;7.93;;;4.60;;
51374;SDS011;37465;52.738;4.752;2023-03-01T04:55:19;9.23;;;4.90;;
51374;SDS011;37465;52.738;4.752;2023-03-01T04:57:47;7.85;;;4.45;;
51374;SDS011;37465;52.738;4.752;2023-03-01T05:00:16;12.98;;;6.03;;
51374;SDS011;37465;52.738;4.752;2023-03-01T05:02:47;7.03;;;4.40;;
51374;SDS011;37465;52.738;4.752;2023-03-01T05:05:23;7.85;;;4.32;;
51374;SDS011;37465;52.738;4.752;2023-03-01T05:07:53;12.02;;;6.43;;
51374;SDS011;37465;52.738;4.752;2023-03-01T05:10:21;7.70;;;4.27;;
51374;SDS011;37465;52.738;4.752;2023-03-01T05:12:50;6.47;;;4.88;;
51374;SDS011;37465;52.738;4.752;2023-03-01T05:15:20;6.88;;;4.32;;
51374;SDS011;37465;52.738;4.752;2023-03-01T05:17:52;6.05;;;4.50;;
51374;SDS011;37465;52.738;4.752;2023-03-01T05:20:20;7.15;;;4.25;;
51374;SDS011;37465;52.738;4.752;2023-03-01T05:22:50;7.95;;;4.53;;
51374;SDS011;37465;52.738;4.752;2023-03-01T05:25:18;6.53;;;4.18;;
51374;SDS011;37465;52.738;4.752;2023-03-01T05:27:47;8.45;;;5.72;;
51374;SDS011;37465;52.738;4.752;2023-03-01T05:30:16;7.68;;;4.97;;
51374;SDS011;37465;52.738;4.752;2023-03-01T05:32:46;13.18;;;4.63;;
51374;SDS011;37465;52.738;4.752;2023-03-01T05:35:15;8.40;;;5.13;;
51374;SDS011;37465;52.738;4.752;2023-03-01T05:40:13;12.27;;;4.57;;
51374;SDS011;37465;52.738;4.752;2023-03-01T05:42:43;7.55;;;4.50;;
51374;SDS011;37465;52.738;4.752;2023-03-01T05:45:11;7.28;;;4.28;;
51374;SDS011;37465;52.738;4.752;2023-03-01T05:47:39;6.40;;;4.10;;
51374;SDS011;37465;52.738;4.752;2023-03-01T05:50:12;6.15;;;3.45;;
51374;SDS011;37465;52.738;4.752;2023-03-01T05:52:45;5.80;;;3.70;;
51374;SDS011;37465;52.738;4.752;2023-03-01T05:55:14;6.32;;;3.58;;
51374;SDS011;37465;52.738;4.752;2023-03-01T05:57:43;6.50;;;3.87;;
51374;SDS011;37465;52.738;4.752;2023-03-01T06:00:11;5.35;;;3.17;;
51374;SDS011;37465;52.738;4.752;2023-03-01T06:05:08;5.38;;;2.92;;
51374;SDS011;37465;52.738;4.752;2023-03-01T06:10:07;7.75;;;3.28;;
51374;SDS011;37465;52.738;4.752;2023-03-01T06:12:36;4.35;;;2.90;;
51374;SDS011;37465;52.738;4.752;2023-03-01T06:15:05;5.82;;;3.30;;
51374;SDS011;37465;52.738;4.752;2023-03-01T06:17:36;6.20;;;3.40;;
51374;SDS011;37465;52.738;4.752;2023-03-01T06:20:05;7.32;;;3.30;;
51374;SDS011;37465;52.738;4.752;2023-03-01T06:22:34;5.25;;;3.45;;
51374;SDS011;37465;52.738;4.752;2023-03-01T06:25:04;5.22;;;3.30;;
51374;SDS011;37465;52.738;4.752;2023-03-01T06:27:32;5.22;;;3.20;;
51374;SDS011;37465;52.738;4.752;2023-03-01T06:30:00;5.63;;;3.72;;
51374;SDS011;37465;52.738;4.752;2023-03-01T06:32:28;4.90;;;3.22;;
51374;SDS011;37465;52.738;4.752;2023-03-01T06:34:56;5.22;;;3.25;;
51374;SDS011;37465;52.738;4.752;2023-03-01T06:37:24;4.53;;;3.40;;
51374;SDS011;37465;52.738;4.752;2023-03-01T06:39:52;4.80;;;2.95;;
51374;SDS011;37465;52.738;4.752;2023-03-01T06:42:21;5.07;;;3.28;;
51374;SDS011;37465;52.738;4.752;2023-03-01T06:44:49;5.22;;;3.47;;
51374;SDS011;37465;52.738;4.752;2023-03-01T06:47:16;4.63;;;3.33;;
51374;SDS011;37465;52.738;4.752;2023-03-01T06:49:44;5.88;;;3.40;;
51374;SDS011;37465;52.738;4.752;2023-03-01T06:52:12;5.95;;;3.75;;
51374;SDS011;37465;52.738;4.752;2023-03-01T06:54:39;7.40;;;4.00;;
51374;SDS011;37465;52.738;4.752;2023-03-01T06:57:07;6.03;;;3.60;;
51374;SDS011;37465;52.738;4.752;2023-03-01T06:59:36;7.18;;;3.15;;
51374;SDS011;37465;52.738;4.752;2023-03-01T07:02:04;6.07;;;3.67;;
51374;SDS011;37465;52.738;4.752;2023-03-01T07:04:31;6.88;;;3.20;;
51374;SDS011;37465;52.738;4.752;2023-03-01T07:06:59;7.07;;;4.03;;
51374;SDS011;37465;52.738;4.752;2023-03-01T07:09:26;7.38;;;4.30;;
51374;SDS011;37465;52.738;4.752;2023-03-01T07:11:54;7.82;;;4.22;;
51374;SDS011;37465;52.738;4.752;2023-03-01T07:14:23;10.30;;;5.68;;
51374;SDS011;37465;52.738;4.752;2023-03-01T07:16:53;10.40;;;5.80;;
51374;SDS011;37465;52.738;4.752;2023-03-01T07:19:21;8.85;;;5.00;;
51374;SDS011;37465;52.738;4.752;2023-03-01T07:21:49;12.23;;;4.95;;
51374;SDS011;37465;52.738;4.752;2023-03-01T07:24:17;11.57;;;5.63;;
51374;SDS011;37465;52.738;4.752;2023-03-01T07:26:47;10.15;;;5.80;;
51374;SDS011;37465;52.738;4.752;2023-03-01T07:29:15;11.52;;;6.80;;
51374;SDS011;37465;52.738;4.752;2023-03-01T07:31:43;12.27;;;7.05;;
51374;SDS011;37465;52.738;4.752;2023-03-01T07:34:12;12.23;;;6.53;;
51374;SDS011;37465;52.738;4.752;2023-03-01T07:36:40;15.63;;;7.28;;
51374;SDS011;37465;52.738;4.752;2023-03-01T07:39:09;13.25;;;6.45;;
51374;SDS011;37465;52.738;4.752;2023-03-01T07:41:37;12.48;;;6.70;;
51374;SDS011;37465;52.738;4.752;2023-03-01T07:44:05;13.73;;;7.43;;
51374;SDS011;37465;52.738;4.752;2023-03-01T14:54:37;9.20;;;8.30;;
51374;SDS011;37465;52.738;4.752;2023-03-01T14:57:12;9.82;;;8.18;;
51374;SDS011;37465;52.738;4.752;2023-03-01T14:59:43;8.30;;;7.50;;
51374;SDS011;37465;52.738;4.752;2023-03-01T15:02:12;10.32;;;9.13;;
51374;SDS011;37465;52.738;4.752;2023-03-01T15:04:43;10.05;;;8.18;;
51374;SDS011;37465;52.738;4.752;2023-03-01T15:15:18;9.77;;;8.70;;
51374;SDS011;37465;52.738;4.752;2023-03-01T15:17:56;11.18;;;8.63;;
51374;SDS011;37465;52.738;4.752;2023-03-01T15:25:23;12.57;;;10.18;;
51374;SDS011;37465;52.738;4.752;2023-03-01T15:27:53;13.32;;;9.15;;
51374;SDS011;37465;52.738;4.752;2023-03-01T15:30:23;13.05;;;9.98;;
51374;SDS011;37465;52.738;4.752;2023-03-01T15:35:56;13.13;;;9.60;;
51374;SDS011;37465;52.738;4.752;2023-03-01T15:41:22;12.23;;;9.27;;
51374;SDS011;37465;52.738;4.752;2023-03-01T15:43:52;12.82;;;8.90;;
51374;SDS011;37465;52.738;4.752;2023-03-01T15:46:23;14.55;;;9.27;;
51374;SDS011;37465;52.738;4.752;2023-03-01T15:48:55;13.23;;;9.02;;
51374;SDS011;37465;52.738;4.752;2023-03-01T15:51:28;13.30;;;9.27;;
51374;SDS011;37465;52.738;4.752;2023-03-01T15:53:58;13.95;;;9.85;;
51374;SDS011;37465;52.738;4.752;2023-03-01T15:56:28;13.60;;;10.50;;
51374;SDS011;37465;52.738;4.752;2023-03-01T15:58:59;16.27;;;10.57;;
51374;SDS011;37465;52.738;4.752;2023-03-01T16:01:29;14.43;;;8.98;;
51374;SDS011;37465;52.738;4.752;2023-03-01T16:04:00;16.58;;;10.32;;
51374;SDS011;37465;52.738;4.752;2023-03-01T16:06:28;13.18;;;9.75;;
51374;SDS011;37465;52.738;4.752;2023-03-01T16:08:56;14.50;;;10.40;;
51374;SDS011;37465;52.738;4.752;2023-03-01T16:11:23;16.27;;;11.95;;
51374;SDS011;37465;52.738;4.752;2023-03-01T16:13:51;14.40;;;9.93;;
51374;SDS011;37465;52.738;4.752;2023-03-01T16:16:19;13.35;;;10.45;;
51374;SDS011;37465;52.738;4.752;2023-03-01T16:18:48;26.08;;;14.70;;
51374;SDS011;37465;52.738;4.752;2023-03-01T16:21:20;29.02;;;17.50;;
51374;SDS011;37465;52.738;4.752;2023-03-01T16:23:50;22.55;;;15.68;;
51374;SDS011;37465;52.738;4.752;2023-03-01T16:26:18;31.35;;;22.15;;
51374;SDS011;37465;52.738;4.752;2023-03-01T16:28:46;34.33;;;21.98;;
51374;SDS011;37465;52.738;4.752;2023-03-01T16:31:17;35.55;;;22.00;;
51374;SDS011;37465;52.738;4.752;2023-03-01T16:33:46;26.83;;;16.60;;
51374;SDS011;37465;52.738;4.752;2023-03-01T16:38:45;19.35;;;13.73;;
51374;SDS011;37465;52.738;4.752;2023-03-01T16:41:15;27.23;;;20.20;;
51374;SDS011;37465;52.738;4.752;2023-03-01T16:46:14;20.65;;;13.40;;
51374;SDS011;37465;52.738;4.752;2023-03-01T16:48:42;17.45;;;11.60;;
51374;SDS011;37465;52.738;4.752;2023-03-01T16:51:10;18.30;;;12.45;;
51374;SDS011;37465;52.738;4.752;2023-03-01T16:53:39;20.52;;;12.68;;
51374;SDS011;37465;52.738;4.752;2023-03-01T16:56:08;22.58;;;13.65;;
51374;SDS011;37465;52.738;4.752;2023-03-01T16:58:37;21.90;;;12.98;;
51374;SDS011;37465;52.738;4.752;2023-03-01T17:01:06;27.42;;;13.65;;
51374;SDS011;37465;52.738;4.752;2023-03-01T17:03:37;29.77;;;17.17;;
51374;SDS011;37465;52.738;4.752;2023-03-01T17:06:06;21.20;;;14.87;;
51374;SDS011;37465;52.738;4.752;2023-03-01T17:08:35;21.73;;;14.27;;
51374;SDS011;37465;52.738;4.752;2023-03-01T17:11:05;19.42;;;12.88;;
51374;SDS011;37465;52.738;4.752;2023-03-01T17:13:34;21.52;;;14.77;;
51374;SDS011;37465;52.738;4.752;2023-03-01T17:16:03;19.83;;;13.88;;
51374;SDS011;37465;52.738;4.752;2023-03-01T17:18:31;18.02;;;12.15;;
51374;SDS011;37465;52.738;4.752;2023-03-01T17:20:59;18.30;;;12.00;;
51374;SDS011;37465;52.738;4.752;2023-03-01T17:23:28;16.65;;;11.07;;
51374;SDS011;37465;52.738;4.752;2023-03-01T17:25:56;16.77;;;11.77;;
51374;SDS011;37465;52.738;4.752;2023-03-01T17:28:26;17.27;;;11.45;;
51374;SDS011;37465;52.738;4.752;2023-03-01T17:30:55;14.55;;;10.25;;
51374;SDS011;37465;52.738;4.752;2023-03-01T17:33:23;17.40;;;11.27;;
51374;SDS011;37465;52.738;4.752;2023-03-01T17:35:50;17.42;;;11.02;;
51374;SDS011;37465;52.738;4.752;2023-03-01T17:38:18;19.17;;;11.23;;
51374;SDS011;37465;52.738;4.752;2023-03-01T17:40:46;17.33;;;10.68;;
51374;SDS011;37465;52.738;4.752;2023-03-01T17:43:14;15.98;;;11.07;;
51374;SDS011;37465;52.738;4.752;2023-03-01T17:45:44;17.10;;;11.43;;
51374;SDS011;37465;52.738;4.752;2023-03-01T17:48:15;18.23;;;11.27;;
51374;SDS011;37465;52.738;4.752;2023-03-01T17:50:43;17.95;;;10.82;;
51374;SDS011;37465;52.738;4.752;2023-03-01T17:53:11;17.48;;;10.93;;
51374;SDS011;37465;52.738;4.752;2023-03-01T17:55:40;16.48;;;11.10;;
51374;SDS011;37465;52.738;4.752;2023-03-01T17:58:08;18.23;;;10.85;;
51374;SDS011;37465;52.738;4.752;2023-03-01T18:00:37;17.37;;;11.03;;
51374;SDS011;37465;52.738;4.752;2023-03-01T18:03:07;14.05;;;9.77;;
51374;SDS011;37465;52.738;4.752;2023-03-01T18:05:35;13.93;;;9.73;;
51374;SDS011;37465;52.738;4.752;2023-03-01T18:08:04;18.88;;;10.23;;
51374;SDS011;37465;52.738;4.752;2023-03-01T18:10:31;16.00;;;10.07;;
51374;SDS011;37465;52.738;4.752;2023-03-01T18:13:01;17.67;;;11.00;;
51374;SDS011;37465;52.738;4.752;2023-03-01T18:15:29;17.95;;;10.07;;
51374;SDS011;37465;52.738;4.752;2023-03-01T18:17:57;15.27;;;10.05;;
51374;SDS011;37465;52.738;4.752;2023-03-01T18:20:26;29.73;;;15.38;;
51374;SDS011;37465;52.738;4.752;2023-03-01T18:22:55;22.17;;;14.45;;
51374;SDS011;37465;52.738;4.752;2023-03-01T18:25:23;22.15;;;13.70;;
51374;SDS011;37465;52.738;4.752;2023-03-01T18:27:51;21.98;;;14.23;;
51374;SDS011;37465;52.738;4.752;2023-03-01T18:30:18;24.45;;;15.85;;
51374;SDS011;37465;52.738;4.752;2023-03-01T18:32:46;21.75;;;12.82;;
51374;SDS011;37465;52.738;4.752;2023-03-01T18:35:16;21.52;;;12.73;;
51374;SDS011;37465;52.738;4.752;2023-03-01T18:37:45;20.13;;;13.00;;
51374;SDS011;37465;52.738;4.752;2023-03-01T18:40:14;17.17;;;10.27;;
51374;SDS011;37465;52.738;4.752;2023-03-01T18:42:42;20.05;;;11.77;;
51374;SDS011;37465;52.738;4.752;2023-03-01T18:45:10;18.92;;;11.43;;
51374;SDS011;37465;52.738;4.752;2023-03-01T18:47:39;18.40;;;11.20;;
51374;SDS011;37465;52.738;4.752;2023-03-01T18:50:07;17.27;;;10.13;;
51374;SDS011;37465;52.738;4.752;2023-03-01T18:52:36;18.58;;;11.35;;
51374;SDS011;37465;52.738;4.752;2023-03-01T18:55:05;17.55;;;10.48;;
51374;SDS011;37465;52.738;4.752;2023-03-01T18:57:33;18.95;;;10.45;;
51374;SDS011;37465;52.738;4.752;2023-03-01T19:00:01;17.30;;;11.18;;
51374;SDS011;37465;52.738;4.752;2023-03-01T19:02:29;18.42;;;11.88;;
51374;SDS011;37465;52.738;4.752;2023-03-01T19:04:56;20.20;;;11.75;;
51374;SDS011;37465;52.738;4.752;2023-03-01T19:07:24;19.60;;;12.45;;
51374;SDS011;37465;52.738;4.752;2023-03-01T19:09:52;21.40;;;11.88;;
51374;SDS011;37465;52.738;4.752;2023-03-01T19:12:20;21.25;;;11.55;;
51374;SDS011;37465;52.738;4.752;2023-03-01T19:14:48;18.85;;;10.52;;
51374;SDS011;37465;52.738;4.752;2023-03-01T19:17:16;22.05;;;12.25;;
51374;SDS011;37465;52.738;4.752;2023-03-01T19:19:45;19.88;;;11.73;;
51374;SDS011;37465;52.738;4.752;2023-03-01T19:22:15;21.65;;;14.70;;
51374;SDS011;37465;52.738;4.752;2023-03-01T19:24:42;21.23;;;12.63;;
51374;SDS011;37465;52.738;4.752;2023-03-01T19:27:10;22.65;;;13.50;;
51374;SDS011;37465;52.738;4.752;2023-03-01T19:29:39;21.58;;;13.82;;
51374;SDS011;37465;52.738;4.752;2023-03-01T19:32:07;21.13;;;12.57;;
51374;SDS011;37465;52.738;4.752;2023-03-01T19:34:35;23.02;;;13.75;;
51374;SDS011;37465;52.738;4.752;2023-03-01T19:37:05;24.50;;;14.13;;
51374;SDS011;37465;52.738;4.752;2023-03-01T19:39:34;21.23;;;13.52;;
51374;SDS011;37465;52.738;4.752;2023-03-01T19:42:02;24.40;;;13.73;;
51374;SDS011;37465;52.738;4.752;2023-03-01T19:44:30;24.73;;;14.25;;
51374;SDS011;37465;52.738;4.752;2023-03-01T19:46:59;21.77;;;12.88;;
51374;SDS011;37465;52.738;4.752;2023-03-01T19:49:27;26.20;;;14.48;;
51374;SDS011;37465;52.738;4.752;2023-03-01T19:51:55;23.52;;;14.10;;
51374;SDS011;37465;52.738;4.752;2023-03-01T19:54:22;23.10;;;14.07;;
51374;SDS011;37465;52.738;4.752;2023-03-01T19:56:50;24.17;;;14.88;;
51374;SDS011;37465;52.738;4.752;2023-03-01T19:59:18;25.27;;;14.75;;
51374;SDS011;37465;52.738;4.752;2023-03-01T20:01:49;27.15;;;15.52;;
51374;SDS011;37465;52.738;4.752;2023-03-01T20:04:19;30.65;;;16.85;;
51374;SDS011;37465;52.738;4.752;2023-03-01T20:06:46;29.55;;;16.52;;
51374;SDS011;37465;52.738;4.752;2023-03-01T20:09:15;30.63;;;15.82;;
51374;SDS011;37465;52.738;4.752;2023-03-01T20:11:47;35.78;;;19.20;;
51374;SDS011;37465;52.738;4.752;2023-03-01T20:14:15;30.58;;;17.30;;
51374;SDS011;37465;52.738;4.752;2023-03-01T20:16:43;30.10;;;16.83;;
51374;SDS011;37465;52.738;4.752;2023-03-01T20:19:11;28.67;;;16.70;;
51374;SDS011;37465;52.738;4.752;2023-03-01T20:21:40;34.80;;;17.15;;
51374;SDS011;37465;52.738;4.752;2023-03-01T20:24:07;32.20;;;17.80;;
51374;SDS011;37465;52.738;4.752;2023-03-01T20:26:35;30.98;;;16.83;;
51374;SDS011;37465;52.738;4.752;2023-03-01T20:29:03;32.38;;;17.55;;
51374;SDS011;37465;52.738;4.752;2023-03-01T20:31:33;31.35;;;16.67;;
51374;SDS011;37465;52.738;4.752;2023-03-01T20:34:01;31.77;;;15.73;;
51374;SDS011;37465;52.738;4.752;2023-03-01T20:36:29;30.95;;;16.60;;
51374;SDS011;37465;52.738;4.752;2023-03-01T20:38:58;26.13;;;15.23;;
51374;SDS011;37465;52.738;4.752;2023-03-01T20:41:26;26.55;;;15.20;;
51374;SDS011;37465;52.738;4.752;2023-03-01T20:43:54;32.33;;;16.70;;
51374;SDS011;37465;52.738;4.752;2023-03-01T20:46:24;32.35;;;18.02;;
51374;SDS011;37465;52.738;4.752;2023-03-01T20:48:55;30.60;;;15.68;;
51374;SDS011;37465;52.738;4.752;2023-03-01T20:51:22;31.77;;;16.83;;
51374;SDS011;37465;52.738;4.752;2023-03-01T20:53:51;30.63;;;17.45;;
51374;SDS011;37465;52.738;4.752;2023-03-01T20:56:20;31.25;;;17.38;;
51374;SDS011;37465;52.738;4.752;2023-03-01T20:58:48;37.15;;;17.48;;
51374;SDS011;37465;52.738;4.752;2023-03-01T21:01:17;32.25;;;16.42;;
51374;SDS011;37465;52.738;4.752;2023-03-01T21:03:46;35.80;;;17.25;;
51374;SDS011;37465;52.738;4.752;2023-03-01T21:06:13;32.60;;;17.02;;
51374;SDS011;37465;52.738;4.752;2023-03-01T21:08:41;32.90;;;17.23;;
51374;SDS011;37465;52.738;4.752;2023-03-01T21:11:09;32.05;;;16.65;;
51374;SDS011;37465;52.738;4.752;2023-03-01T21:13:38;29.90;;;16.17;;
51374;SDS011;37465;52.738;4.752;2023-03-01T21:16:08;31.58;;;15.60;;
51374;SDS011;37465;52.738;4.752;2023-03-01T21:18:39;28.67;;;15.20;;
51374;SDS011;37465;52.738;4.752;2023-03-01T21:21:07;28.58;;;15.23;;
51374;SDS011;37465;52.738;4.752;2023-03-01T21:23:37;29.23;;;15.63;;
51374;SDS011;37465;52.738;4.752;2023-03-01T21:26:06;32.13;;;16.38;;
51374;SDS011;37465;52.738;4.752;2023-03-01T21:28:35;31.20;;;16.50;;
51374;SDS011;37465;52.738;4.752;2023-03-01T21:33:33;32.30;;;15.98;;
51374;SDS011;37465;52.738;4.752;2023-03-01T21:36:01;32.78;;;16.75;;
51374;SDS011;37465;52.738;4.752;2023-03-01T21:38:30;32.25;;;17.70;;
51374;SDS011;37465;52.738;4.752;2023-03-01T21:41:02;32.15;;;17.08;;
51374;SDS011;37465;52.738;4.752;2023-03-01T21:43:31;30.63;;;16.13;;
51374;SDS011;37465;52.738;4.752;2023-03-01T21:46:03;32.50;;;16.13;;
51374;SDS011;37465;52.738;4.752;2023-03-01T21:48:32;31.83;;;16.60;;
51374;SDS011;37465;52.738;4.752;2023-03-01T21:51:00;34.05;;;18.30;;
51374;SDS011;37465;52.738;4.752;2023-03-01T21:53:29;36.70;;;17.13;;
51374;SDS011;37465;52.738;4.752;2023-03-01T21:55:58;29.13;;;16.17;;
51374;SDS011;37465;52.738;4.752;2023-03-01T21:58:26;31.48;;;16.63;;
51374;SDS011;37465;52.738;4.752;2023-03-01T22:00:56;28.63;;;15.60;;
51374;SDS011;37465;52.738;4.752;2023-03-01T22:03:26;32.05;;;17.73;;
51374;SDS011;37465;52.738;4.752;2023-03-01T22:05:54;31.13;;;16.63;;
51374;SDS011;37465;52.738;4.752;2023-03-01T22:08:22;28.67;;;15.00;;
51374;SDS011;37465;52.738;4.752;2023-03-01T22:10:50;38.85;;;17.50;;
51374;SDS011;37465;52.738;4.752;2023-03-01T22:13:18;34.60;;;16.95;;
51374;SDS011;37465;52.738;4.752;2023-03-01T22:15:46;36.80;;;17.75;;
51374;SDS011;37465;52.738;4.752;2023-03-01T22:18:14;31.38;;;17.63;;
51374;SDS011;37465;52.738;4.752;2023-03-01T22:20:43;37.25;;;17.33;;
51374;SDS011;37465;52.738;4.752;2023-03-01T22:23:11;32.92;;;16.75;;
51374;SDS011;37465;52.738;4.752;2023-03-01T22:25:39;37.55;;;18.67;;
51374;SDS011;37465;52.738;4.752;2023-03-01T22:28:07;36.28;;;18.50;;
51374;SDS011;37465;52.738;4.752;2023-03-01T22:30:35;38.85;;;18.27;;